NCAR-RAP Real-Time Weather Data

Output produced by METARs form (14 October 2019  22:55 UTC)
found at http://weather.rap.ucar.edu/surface/
 
KTLH 142218Z 18007KT 10SM TS SCT045CB BKN080 BKN250 29/21 A2999 RMK AO2 RAE2154 TSB18 OCNL LTGIC NE TS NE MOV E P0000 T02890211
KTLH 142153Z 18006KT 10SM -RA SCT050 BKN110 BKN250 29/22 A3000 RMK AO2 RAB31 SLP157 VIS N 3 P0006 T02940217
KTLH 142053Z 16007KT 10SM SCT060 SCT095 SCT250 31/20 A2999 RMK AO2 SLP153 T03110200 56016
KTLH 141953Z VRB06KT 10SM SCT055 SCT140 SCT250 33/18 A2999 RMK AO2 SLP153 T03280178
KTLH 141853Z 28004KT 10SM SCT055 SCT250 33/18 A3000 RMK AO2 SLP159 T03280178
KTLH 141753Z 01003KT 10SM SCT050 SCT250 31/18 A3003 RMK AO2 SLP169 T03110178 10322 20194 58014
KTLH 141653Z 23004KT 10SM SCT050 31/18 A3006 RMK AO2 SLP177 T03060183
KTLH 141553Z 15006KT 10SM SCT040 30/19 A3007 RMK AO2 SLP180 T03000194
KTLH 141453Z 00000KT 10SM SCT040 28/20 A3008 RMK AO2 SLP183 T02780200 50005
KTLH 141353Z 10004KT 10SM FEW050 FEW110 SCT250 26/20 A3009 RMK AO2 SLP187 T02560200
KTLH 141253Z 12003KT 10SM FEW050 FEW110 SCT250 22/19 A3007 RMK AO2 SLP182 T02220194
KTLH 141153Z 00000KT 10SM FEW030 FEW060 SCT150 19/18 A3006 RMK AO2 SLP178 T01940178 10222 20194 53011
KTLH 141053Z 12003KT 10SM SCT025 20/18 A3005 RMK AO2 SLP174 T02000183
KTLH 140953Z 00000KT 10SM FEW025 SCT140 BKN200 21/18 A3004 RMK AO2 SLP170 T02060183
KTLH 140943Z AUTO 00000KT 10SM FEW025 21/18 A3004 RMK AO2 T02110183
KTLH 140853Z AUTO 00000KT 10SM OVC024 22/19 A3003 RMK AO2 SLP167 T02170189 55006
KTLH 140838Z AUTO 35003KT 10SM BKN024 22/19 A3002 RMK AO2 T02170189
KTLH 140753Z AUTO 00000KT 10SM CLR 21/18 A3003 RMK AO2 SLP167 T02060183
KTLH 140653Z AUTO 00000KT 10SM FEW070 21/19 A3003 RMK AO2 SLP169 T02060189
KTLH 140553Z AUTO 33003KT 10SM BKN065 22/19 A3005 RMK AO2 SLP173 T02170194 10261 20206 51003
KTLH 140453Z AUTO 00000KT 10SM CLR 22/19 A3004 RMK AO2 SLP171 T02170194 403170167
KTLH 140353Z AUTO 00000KT 10SM CLR 22/19 A3005 RMK AO2 SLP173 T02220194
KTLH 140253Z 00000KT 10SM FEW120 23/20 A3004 RMK AO2 SLP170 T02280200 51010
KTLH 140153Z 00000KT 10SM FEW120 24/21 A3003 RMK AO2 SLP167 T02390211
KTLH 140053Z 16003KT 10SM FEW120 25/21 A3002 RMK AO2 SLP165 T02500211
KTLH 132353Z 16006KT 10SM FEW080 26/21 A3000 RMK AO2 SLP159 T02610211 10317 20261 51008
KTLH 132253Z 16008KT 10SM FEW050 FEW080 28/20 A3000 RMK AO2 SLP157 T02780200
KTLH 132153Z 18009KT 10SM SCT050 30/18 A2999 RMK AO2 SLP153 T03000183
KTLH 132053Z 17007KT 140V200 10SM SCT050 BKN070 31/19 A2998 RMK AO2 SLP151 T03060189 56009
KTLH 131953Z 16011KT 10SM BKN060 31/19 A2998 RMK AO2 SLP151 T03060189
KTLH 131855Z 13008KT 10SM BKN055 30/18 A2999 RMK AO2 T03000183
KTLH 131853Z AUTO 15006KT 10SM BKN055 30/18 A2999 RMK AO2 SLP153 T03000183
KTLH 131753Z 20009KT 10SM SCT047 SCT250 31/17 A3001 RMK AO2 SLP161 T03060172 10317 20172 58016
KTLH 131653Z 00000KT 10SM SCT047 SCT250 30/17 A3003 RMK AO2 SLP166 T03000172
KTLH 131553Z VRB06KT 10SM SCT040 SCT200 30/18 A3005 RMK AO2 SLP175 T03000178
KTLH 131453Z 19005KT 10SM FEW040 FEW200 28/18 A3006 RMK AO2 SLP177 T02780183 52008
KTLH 131353Z 00000KT 10SM FEW040 FEW250 24/19 A3005 RMK AO2 SLP175 T02440189
KTLH 131253Z 11003KT 10SM FEW250 21/18 A3004 RMK AO2 SLP171 T02060178
KTLH 131153Z 00000KT 10SM BCFG CLR 18/16 A3003 RMK AO2 SLP169 T01780156 10200 20167 51008
KTLH 131053Z 00000KT 10SM CLR 17/15 A3003 RMK AO2 SLP166 T01670150
KTLH 130953Z 00000KT 10SM CLR 17/16 A3002 RMK AO2 SLP164 T01720156
KTLH 130853Z AUTO 00000KT 10SM CLR 18/16 A3001 RMK AO2 SLP160 T01780161 55001
KTLH 130753Z AUTO 00000KT 10SM CLR 18/16 A3001 RMK AO2 SLP160 T01830161
KTLH 130653Z AUTO 10005KT 10SM CLR 18/17 A3001 RMK AO2 SLP160 T01830167
KTLH 130553Z AUTO 00000KT 10SM CLR 20/17 A3001 RMK AO2 SLP161 T02000172 10250 20189 58003
KTLH 130453Z AUTO 00000KT 10SM CLR 20/17 A3002 RMK AO2 SLP163 T02000167 403220161
KTLH 130353Z AUTO 00000KT 10SM CLR 21/17 A3002 RMK AO2 SLP164 T02060172
KTLH 130253Z 00000KT 10SM FEW140 22/18 A3002 RMK AO2 SLP164 T02220178 50005
KTLH 130153Z 00000KT 10SM SCT140 23/18 A3002 RMK AO2 SLP165 T02280178
KTLH 130053Z 14003KT 10SM FEW140 24/18 A3002 RMK AO2 SLP165 T02440178
KTLH 122353Z 20003KT 10SM FEW140 24/18 A3000 RMK AO2 SLP159 T02440178 10322 20239 53010